createdAt,value
2019-03-28T00:01:05.440Z,7.42
2019-03-28T00:03:31.999Z,7.28
2019-03-28T00:05:58.653Z,7.60
2019-03-28T00:08:25.323Z,6.75
2019-03-28T00:10:52.889Z,6.85
2019-03-28T00:13:19.562Z,11.12
2019-03-28T00:15:46.223Z,5.20
2019-03-28T00:18:13.123Z,6.80
2019-03-28T00:20:40.041Z,9.70
2019-03-28T00:23:07.258Z,7.72
2019-03-28T00:25:33.981Z,20.17
2019-03-28T00:28:00.529Z,6.12
2019-03-28T00:30:27.103Z,4.85
2019-03-28T00:32:53.858Z,8.28
2019-03-28T00:35:20.617Z,5.17
2019-03-28T00:37:47.185Z,7.05
2019-03-28T00:40:13.930Z,5.92
2019-03-28T00:42:40.816Z,7.53
2019-03-28T00:45:07.371Z,4.22
2019-03-28T00:47:34.115Z,8.98
2019-03-28T00:50:00.790Z,6.42
2019-03-28T00:52:27.551Z,6.03
2019-03-28T00:54:54.210Z,4.47
2019-03-28T00:57:20.970Z,10.05
2019-03-28T00:59:47.643Z,10.60
2019-03-28T01:02:14.281Z,7.55
2019-03-28T01:04:41.055Z,7.67
2019-03-28T01:07:07.711Z,5.37
2019-03-28T01:09:34.377Z,6.15
2019-03-28T01:12:01.147Z,6.55
2019-03-28T01:14:27.895Z,8.40
2019-03-28T01:16:54.656Z,7.08
2019-03-28T01:19:21.216Z,5.85
2019-03-28T01:21:47.832Z,5.90
2019-03-28T01:24:14.307Z,7.85
2019-03-28T01:26:40.975Z,7.25
2019-03-28T01:29:07.658Z,8.53
2019-03-28T01:31:34.316Z,8.40
2019-03-28T01:34:00.882Z,5.40
2019-03-28T01:36:27.545Z,7.03
2019-03-28T01:38:54.397Z,7.25
2019-03-28T01:41:21.051Z,8.15
2019-03-28T01:43:47.726Z,6.55
2019-03-28T01:46:14.374Z,6.47
2019-03-28T01:48:41.138Z,6.95
2019-03-28T01:51:07.694Z,10.05
2019-03-28T01:53:34.370Z,5.45
2019-03-28T01:56:01.013Z,6.45
2019-03-28T01:58:27.678Z,9.10
2019-03-28T02:00:54.337Z,5.20
2019-03-28T02:03:20.990Z,6.20
2019-03-28T02:05:47.762Z,7.08
2019-03-28T02:08:15.247Z,8.20
2019-03-28T02:10:42.011Z,6.10
2019-03-28T02:13:08.777Z,8.23
2019-03-28T02:15:35.434Z,3.85
2019-03-28T02:18:02.085Z,6.60
2019-03-28T02:20:28.659Z,6.60
2019-03-28T02:22:55.309Z,4.42
2019-03-28T02:25:21.968Z,5.40
2019-03-28T02:27:48.724Z,8.13
2019-03-28T02:30:15.402Z,7.40
2019-03-28T02:32:42.044Z,5.05
2019-03-28T02:35:08.723Z,4.80
2019-03-28T02:37:35.580Z,5.72
2019-03-28T02:40:02.346Z,6.40
2019-03-28T02:42:29.092Z,5.37
2019-03-28T02:44:55.688Z,4.37
2019-03-28T02:47:22.478Z,7.47
2019-03-28T02:49:49.185Z,4.95
2019-03-28T02:52:15.840Z,6.03
2019-03-28T02:54:42.402Z,6.15
2019-03-28T02:57:08.975Z,6.62
2019-03-28T02:59:35.729Z,8.65
2019-03-28T03:02:02.389Z,8.58
2019-03-28T03:04:28.955Z,7.28
2019-03-28T03:06:55.500Z,7.10
2019-03-28T03:09:22.264Z,7.35
2019-03-28T03:11:49.016Z,10.55
2019-03-28T03:14:15.694Z,8.53
2019-03-28T03:16:42.457Z,10.82
2019-03-28T03:19:09.324Z,5.40
2019-03-28T03:21:36.337Z,6.50
2019-03-28T03:24:03.244Z,14.10
2019-03-28T03:26:29.899Z,5.33
2019-03-28T03:28:56.682Z,5.25
2019-03-28T03:31:24.950Z,8.35
2019-03-28T03:33:51.732Z,7.60
2019-03-28T03:36:18.395Z,7.47
2019-03-28T03:38:45.053Z,5.03
2019-03-28T03:41:11.716Z,7.17
2019-03-28T03:43:38.474Z,7.35
2019-03-28T03:46:05.045Z,14.43
2019-03-28T03:48:31.788Z,10.80
2019-03-28T03:50:58.558Z,8.68
2019-03-28T03:53:25.313Z,6.03
2019-03-28T03:55:52.090Z,6.87
2019-03-28T03:58:19.251Z,11.15
2019-03-28T04:00:46.426Z,9.90
2019-03-28T04:03:13.090Z,5.65
2019-03-28T04:05:39.645Z,5.67
2019-03-28T04:08:06.309Z,7.67
2019-03-28T04:10:32.972Z,6.58
2019-03-28T04:12:59.757Z,6.70
2019-03-28T04:15:26.480Z,8.30
2019-03-28T04:17:53.250Z,8.28
2019-03-28T04:20:20.012Z,10.63
2019-03-28T04:22:46.770Z,5.08
2019-03-28T04:25:13.733Z,8.13
2019-03-28T04:27:40.615Z,5.55
2019-03-28T04:30:07.371Z,5.58
2019-03-28T04:32:34.040Z,4.58
2019-03-28T04:35:00.686Z,7.08
2019-03-28T04:37:27.452Z,4.30
2019-03-28T04:39:54.008Z,5.30
2019-03-28T04:42:20.634Z,4.53
2019-03-28T04:44:50.413Z,5.80
2019-03-28T04:47:17.170Z,7.83
2019-03-28T04:49:44.312Z,9.33
2019-03-28T04:52:11.104Z,6.00
2019-03-28T04:54:37.861Z,7.62
2019-03-28T04:57:04.528Z,4.40
2019-03-28T04:59:31.177Z,6.62
2019-03-28T05:02:02.938Z,7.47
2019-03-28T05:04:26.246Z,4.67
2019-03-28T05:06:52.995Z,4.87
2019-03-28T05:09:19.657Z,6.30
2019-03-28T05:11:46.230Z,4.65
2019-03-28T05:14:12.989Z,4.42
2019-03-28T05:16:39.650Z,7.50
2019-03-28T05:19:07.319Z,5.00
2019-03-28T05:21:33.987Z,9.60
2019-03-28T05:24:00.645Z,5.70
2019-03-28T05:26:27.314Z,11.90
2019-03-28T05:28:57.882Z,4.97
2019-03-28T05:31:22.579Z,7.95
2019-03-28T05:33:49.445Z,4.00
2019-03-28T05:36:16.197Z,6.30
2019-03-28T05:38:42.966Z,9.23
2019-03-28T05:41:09.531Z,6.62
2019-03-28T05:43:36.271Z,4.40
2019-03-28T05:46:02.690Z,11.25
2019-03-28T05:48:29.300Z,8.93
2019-03-28T05:50:55.933Z,5.95
2019-03-28T05:53:22.787Z,8.10
2019-03-28T05:55:49.596Z,8.98
2019-03-28T05:58:16.239Z,7.87
2019-03-28T06:00:42.911Z,8.10
2019-03-28T06:03:09.565Z,9.28
2019-03-28T06:05:36.227Z,7.03
2019-03-28T06:08:02.777Z,10.78
2019-03-28T06:10:29.654Z,7.33
2019-03-28T06:12:56.207Z,8.73
2019-03-28T06:15:23.075Z,7.53
2019-03-28T06:17:49.823Z,16.55
2019-03-28T06:20:16.490Z,8.20
2019-03-28T06:22:43.256Z,8.98
2019-03-28T06:25:09.920Z,7.28
2019-03-28T06:27:36.480Z,5.47
2019-03-28T06:30:03.140Z,11.90
2019-03-28T06:32:42.303Z,7.67
2019-03-28T06:34:58.193Z,7.00
2019-03-28T06:37:25.061Z,6.05
2019-03-28T06:39:51.812Z,9.10
2019-03-28T06:42:18.478Z,5.47
2019-03-28T06:44:45.052Z,7.08
2019-03-28T06:47:11.809Z,13.08
2019-03-28T06:49:38.657Z,14.07
2019-03-28T06:52:05.327Z,7.40
2019-03-28T06:54:32.100Z,10.55
2019-03-28T06:56:59.874Z,9.68
2019-03-28T06:59:36.837Z,6.55
2019-03-28T07:01:55.349Z,8.35
2019-03-28T07:04:22.201Z,4.70
2019-03-28T07:06:48.862Z,7.15
2019-03-28T07:09:15.737Z,5.85
2019-03-28T07:11:42.295Z,8.23
2019-03-28T07:14:08.944Z,8.30
2019-03-28T07:16:35.503Z,5.28
2019-03-28T07:19:02.064Z,5.80
2019-03-28T07:21:28.830Z,10.55
2019-03-28T07:23:55.491Z,3.95
2019-03-28T07:26:22.147Z,5.08
2019-03-28T07:28:48.709Z,3.40
2019-03-28T07:31:15.471Z,3.98
2019-03-28T07:33:42.031Z,4.55
2019-03-28T07:36:08.793Z,7.87
2019-03-28T07:38:35.342Z,14.70
2019-03-28T07:41:03.033Z,6.58
2019-03-28T07:43:29.902Z,5.65
2019-03-28T07:45:56.655Z,3.45
2019-03-28T07:48:26.381Z,4.67
2019-03-28T07:50:52.940Z,5.60
2019-03-28T07:53:21.502Z,4.40
2019-03-28T07:55:48.315Z,3.87
2019-03-28T07:58:14.977Z,5.58
2019-03-28T08:00:41.730Z,6.72
2019-03-28T08:03:08.394Z,4.47
2019-03-28T08:05:35.054Z,4.25
2019-03-28T08:08:01.826Z,9.48
2019-03-28T08:10:28.775Z,4.25
2019-03-28T08:12:55.643Z,3.02
2019-03-28T08:15:22.519Z,4.58
2019-03-28T08:17:49.279Z,3.70
2019-03-28T08:20:15.834Z,5.42
2019-03-28T08:22:42.388Z,4.85
2019-03-28T08:25:11.743Z,3.42
2019-03-28T08:27:37.566Z,4.50
2019-03-28T08:30:17.261Z,4.37
2019-03-28T08:32:32.813Z,4.42
2019-03-28T08:34:59.595Z,4.15
2019-03-28T08:37:26.240Z,6.03
2019-03-28T08:39:52.905Z,6.40
2019-03-28T08:42:19.673Z,4.10
2019-03-28T08:44:47.966Z,5.22
2019-03-28T08:47:14.825Z,5.85
2019-03-28T08:49:41.584Z,5.28
2019-03-28T08:52:11.401Z,6.40
2019-03-28T08:54:36.709Z,3.37
2019-03-28T08:57:04.846Z,5.22
2019-03-28T09:02:19.339Z,6.20
2019-03-28T09:04:46.098Z,4.77
2019-03-28T09:07:12.756Z,4.03
2019-03-28T09:09:39.405Z,8.43
2019-03-28T09:12:06.352Z,5.13
2019-03-28T09:17:17.894Z,5.03
2019-03-28T09:19:50.300Z,6.15
2019-03-28T09:22:16.859Z,7.58
2019-03-28T09:24:43.525Z,8.63
2019-03-28T09:27:10.433Z,6.50
2019-03-28T09:29:37.242Z,6.80
2019-03-28T09:32:03.905Z,7.80
2019-03-28T09:34:30.787Z,6.60
2019-03-28T09:36:57.637Z,5.30
2019-03-28T09:39:24.973Z,8.87
2019-03-28T09:41:51.975Z,9.30
2019-03-28T09:44:18.817Z,7.27
2019-03-28T09:46:45.513Z,8.80
2019-03-28T09:49:12.165Z,7.77
2019-03-28T09:51:38.820Z,11.18
2019-03-28T09:54:05.685Z,10.78
2019-03-28T09:56:32.552Z,8.38
2019-03-28T09:59:00.485Z,7.72
2019-03-28T10:01:27.514Z,7.80
2019-03-28T10:03:54.163Z,8.25
2019-03-28T10:06:20.720Z,9.20
2019-03-28T10:08:47.553Z,7.25
2019-03-28T10:11:14.451Z,9.35
2019-03-28T10:13:41.222Z,15.15
2019-03-28T10:16:08.084Z,13.70
2019-03-28T10:18:34.751Z,11.35
2019-03-28T10:21:01.299Z,9.53
2019-03-28T10:23:28.068Z,9.00
2019-03-28T10:25:54.841Z,5.78
2019-03-28T10:28:21.501Z,8.13
2019-03-28T10:30:48.250Z,5.05
2019-03-28T10:33:14.912Z,5.37
2019-03-28T10:35:41.677Z,6.70
2019-03-28T10:38:08.443Z,5.85
2019-03-28T10:40:36.357Z,5.40
2019-03-28T10:43:03.504Z,6.75
2019-03-28T10:45:33.372Z,9.15
2019-03-28T10:47:58.767Z,4.78
2019-03-28T10:50:39.823Z,5.08
2019-03-28T10:52:54.237Z,9.00
2019-03-28T10:55:21.091Z,5.45
2019-03-28T10:57:47.750Z,7.55
2019-03-28T11:00:23.832Z,7.87
2019-03-28T11:02:42.708Z,6.35
2019-03-28T11:05:09.580Z,6.15
2019-03-28T11:07:36.441Z,7.80
2019-03-28T11:10:03.303Z,7.75
2019-03-28T11:12:30.074Z,8.88
2019-03-28T11:14:56.824Z,9.70
2019-03-28T11:17:23.480Z,4.62
2019-03-28T11:19:50.140Z,7.10
2019-03-28T11:22:17.419Z,5.95
2019-03-28T11:24:46.344Z,5.67
2019-03-28T11:27:12.593Z,6.25
2019-03-28T11:29:39.356Z,4.50
2019-03-28T11:32:06.101Z,7.17
2019-03-28T11:34:32.883Z,6.45
2019-03-28T11:36:59.624Z,4.55
2019-03-28T11:39:26.193Z,4.42
2019-03-28T11:41:52.958Z,4.67
2019-03-28T11:44:19.510Z,8.53
2019-03-28T11:46:46.285Z,4.00
2019-03-28T11:49:13.035Z,7.97
2019-03-28T11:51:39.815Z,3.58
2019-03-28T11:54:06.572Z,3.92
2019-03-28T11:56:33.332Z,7.67
2019-03-28T11:59:00.199Z,3.95
2019-03-28T12:01:27.903Z,3.95
2019-03-28T12:03:54.633Z,3.98
2019-03-28T12:06:21.298Z,4.17
2019-03-28T12:08:48.061Z,5.97
2019-03-28T12:11:14.824Z,4.00
2019-03-28T12:13:45.154Z,4.28
2019-03-28T12:16:09.878Z,4.08
2019-03-28T12:18:36.437Z,3.80
2019-03-28T12:21:03.303Z,4.17
2019-03-28T12:23:29.974Z,3.75
2019-03-28T12:25:56.745Z,3.92
2019-03-28T12:28:23.483Z,4.45
2019-03-28T12:30:50.048Z,4.50
2019-03-28T12:33:16.726Z,5.47
2019-03-28T12:35:43.357Z,4.67
2019-03-28T12:38:09.939Z,4.03
2019-03-28T12:40:36.685Z,4.05
2019-03-28T12:43:03.467Z,7.90
2019-03-28T12:45:30.126Z,4.20
2019-03-28T12:47:56.764Z,3.75
2019-03-28T12:50:23.645Z,4.28
2019-03-28T12:52:50.403Z,4.12
2019-03-28T12:55:16.974Z,3.72
2019-03-28T12:57:43.716Z,3.05
2019-03-28T13:00:10.398Z,3.60
2019-03-28T13:02:37.247Z,4.40
2019-03-28T13:05:04.008Z,3.80
2019-03-28T13:07:30.766Z,4.17
2019-03-28T13:09:58.551Z,3.20
2019-03-28T13:12:25.211Z,4.10
2019-03-28T13:14:51.771Z,4.20
2019-03-28T13:17:18.531Z,3.50
2019-03-28T13:19:45.091Z,2.98
2019-03-28T13:22:11.971Z,3.52
2019-03-28T13:24:38.726Z,3.75
2019-03-28T13:27:05.393Z,3.65
2019-03-28T13:29:32.031Z,3.60
2019-03-28T13:31:58.693Z,3.33
2019-03-28T13:34:25.567Z,3.02
2019-03-28T13:36:52.235Z,4.30
2019-03-28T13:39:18.886Z,3.00
2019-03-28T13:41:46.207Z,5.42
2019-03-28T13:44:13.228Z,3.80
2019-03-28T13:46:39.797Z,3.65
2019-03-28T13:49:06.487Z,3.67
2019-03-28T13:51:33.119Z,3.00
2019-03-28T13:54:00.994Z,4.45
2019-03-28T13:56:27.554Z,5.60
2019-03-28T13:58:54.313Z,3.47
2019-03-28T14:01:20.881Z,6.58
2019-03-28T14:03:48.551Z,4.15
2019-03-28T14:06:15.227Z,4.10
2019-03-28T14:08:42.082Z,4.95
2019-03-28T14:11:08.759Z,3.83
2019-03-28T14:13:35.401Z,4.22
2019-03-28T14:16:01.964Z,3.35
2019-03-28T14:18:29.836Z,3.72
2019-03-28T14:20:56.405Z,4.90
2019-03-28T14:23:23.072Z,3.98
2019-03-28T14:25:49.726Z,3.80
2019-03-28T14:28:16.401Z,4.20
2019-03-28T14:30:43.367Z,4.65
2019-03-28T14:33:11.601Z,5.22
2019-03-28T14:35:39.330Z,4.10
2019-03-28T14:38:06.929Z,6.00
2019-03-28T14:40:33.590Z,3.25
2019-03-28T14:43:00.442Z,6.45
2019-03-28T14:45:27.098Z,3.95
2019-03-28T14:47:53.766Z,4.25
2019-03-28T14:50:20.435Z,4.03
2019-03-28T14:52:47.181Z,5.28
2019-03-28T14:55:13.743Z,5.05
2019-03-28T14:57:40.308Z,3.90
2019-03-28T15:00:07.262Z,3.72
2019-03-28T15:02:34.035Z,4.53
2019-03-28T15:05:00.689Z,4.25
2019-03-28T15:07:27.449Z,4.62
2019-03-28T15:09:54.018Z,6.72
2019-03-28T15:12:21.689Z,5.17
2019-03-28T15:14:48.253Z,4.45
2019-03-28T15:17:15.005Z,2.92
2019-03-28T15:19:41.534Z,4.53
2019-03-28T15:22:08.088Z,6.10
2019-03-28T15:24:34.871Z,3.55
2019-03-28T15:27:01.684Z,3.35
2019-03-28T15:29:28.418Z,5.35
2019-03-28T15:31:54.977Z,3.60
2019-03-28T15:34:21.732Z,3.90
2019-03-28T15:36:48.392Z,3.60
2019-03-28T15:39:15.271Z,4.55
2019-03-28T15:41:42.037Z,4.72
2019-03-28T15:44:08.781Z,3.52
2019-03-28T15:46:35.456Z,3.83
2019-03-28T15:49:02.105Z,3.70
2019-03-28T15:51:28.772Z,4.87
2019-03-28T15:53:55.427Z,7.05
2019-03-28T15:56:22.094Z,3.55
2019-03-28T15:58:48.860Z,3.52
2019-03-28T16:01:15.724Z,4.80
2019-03-28T16:03:52.337Z,4.25
2019-03-28T16:06:10.875Z,3.70
2019-03-28T16:08:37.431Z,3.50
2019-03-28T16:11:03.994Z,4.22
2019-03-28T16:13:30.568Z,5.35
2019-03-28T16:15:57.266Z,3.95
2019-03-28T16:18:23.980Z,5.75
2019-03-28T16:20:53.345Z,4.45
2019-03-28T16:23:19.142Z,4.60
2019-03-28T16:25:45.791Z,3.90
2019-03-28T16:28:12.471Z,4.00
2019-03-28T16:30:39.227Z,4.08
2019-03-28T16:33:06.080Z,4.35
2019-03-28T16:35:32.855Z,3.85
2019-03-28T16:37:59.504Z,4.78
2019-03-28T16:40:26.161Z,3.85
2019-03-28T16:42:52.937Z,4.37
2019-03-28T16:45:19.504Z,3.95
2019-03-28T16:47:46.259Z,4.30
2019-03-28T16:50:13.016Z,3.60
2019-03-28T16:52:39.680Z,3.42
2019-03-28T16:55:06.437Z,3.95
2019-03-28T16:57:33.003Z,4.37
2019-03-28T16:59:59.763Z,2.83
2019-03-28T17:02:26.510Z,3.10
2019-03-28T17:04:53.275Z,3.80
2019-03-28T17:07:19.843Z,2.90
2019-03-28T17:09:46.490Z,2.95
2019-03-28T17:12:13.255Z,4.28
2019-03-28T17:14:39.812Z,6.25
2019-03-28T17:17:06.483Z,4.25
2019-03-28T17:19:33.150Z,4.12
2019-03-28T17:21:59.806Z,3.75
2019-03-28T17:24:26.373Z,4.40
2019-03-28T17:26:53.012Z,5.65
2019-03-28T17:29:19.577Z,7.83
2019-03-28T17:31:46.139Z,10.48
2019-03-28T17:34:12.700Z,8.90
2019-03-28T17:36:39.465Z,9.90
2019-03-28T17:39:06.120Z,7.28
2019-03-28T17:41:32.794Z,7.45
2019-03-28T17:43:59.543Z,7.20
2019-03-28T17:46:26.096Z,7.87
2019-03-28T17:48:52.759Z,6.35
2019-03-28T17:51:19.419Z,6.58
2019-03-28T17:53:46.181Z,4.92
2019-03-28T17:56:12.841Z,6.40
2019-03-28T17:58:39.505Z,10.55
2019-03-28T18:01:06.369Z,7.33
2019-03-28T18:03:33.038Z,10.55
2019-03-28T18:05:59.744Z,7.95
2019-03-28T18:08:26.454Z,10.53
2019-03-28T18:10:53.224Z,10.98
2019-03-28T18:13:19.783Z,11.25
2019-03-28T18:15:46.530Z,10.70
2019-03-28T18:18:13.296Z,14.05
2019-03-28T18:20:39.846Z,12.07
2019-03-28T18:23:06.424Z,11.25
2019-03-28T18:25:33.736Z,12.37
2019-03-28T18:28:00.434Z,11.88
2019-03-28T18:30:27.005Z,10.50
2019-03-28T18:32:53.593Z,18.92
2019-03-28T18:35:20.388Z,15.83
2019-03-28T18:37:46.974Z,16.87
2019-03-28T18:40:13.607Z,19.82
2019-03-28T18:42:40.207Z,13.60
2019-03-28T18:45:07.807Z,14.68
2019-03-28T18:47:34.447Z,13.20
2019-03-28T18:50:03.354Z,16.27
2019-03-28T18:52:29.508Z,16.77
2019-03-28T18:54:56.107Z,14.55
2019-03-28T18:57:22.611Z,15.03
2019-03-28T18:59:49.792Z,13.38
2019-03-28T19:02:16.607Z,11.22
2019-03-28T19:04:43.327Z,11.73
2019-03-28T19:07:10.027Z,21.17
2019-03-28T19:09:37.267Z,20.65
2019-03-28T19:12:03.909Z,15.80
2019-03-28T19:14:31.714Z,8.48
2019-03-28T19:16:58.989Z,8.28
2019-03-28T19:19:38.804Z,9.65
2019-03-28T19:21:55.820Z,6.53
2019-03-28T19:24:22.429Z,6.20
2019-03-28T19:26:48.989Z,6.40
2019-03-28T19:29:15.649Z,11.30
2019-03-28T19:31:42.209Z,9.28
2019-03-28T19:34:08.968Z,7.00
2019-03-28T19:36:35.528Z,9.95
2019-03-28T19:39:02.009Z,7.42
2019-03-28T19:41:28.509Z,10.03
2019-03-28T19:43:55.011Z,7.58
2019-03-28T19:46:21.670Z,8.20
2019-03-28T19:48:48.210Z,9.63
2019-03-28T19:51:14.972Z,8.38
2019-03-28T19:53:41.530Z,7.17
2019-03-28T19:56:08.204Z,7.17
2019-03-28T19:58:35.295Z,8.60
2019-03-28T20:01:02.228Z,11.18
2019-03-28T20:03:29.088Z,9.38
2019-03-28T20:05:55.965Z,7.75
2019-03-28T20:08:25.814Z,8.85
2019-03-28T20:10:50.924Z,45.65
2019-03-28T20:13:17.586Z,109.83
2019-03-28T20:15:44.229Z,31.93
2019-03-28T20:18:10.905Z,90.15
2019-03-28T20:20:37.664Z,60.17
2019-03-28T20:23:04.224Z,17.35
2019-03-28T20:25:30.885Z,13.00
2019-03-28T20:27:57.546Z,9.95
2019-03-28T20:30:24.304Z,8.28
2019-03-28T20:32:50.967Z,7.55
2019-03-28T20:35:17.629Z,9.15
2019-03-28T20:37:44.200Z,6.67
2019-03-28T20:40:10.951Z,4.42
2019-03-28T20:42:37.668Z,4.15
2019-03-28T20:45:04.382Z,7.28
2019-03-28T20:47:31.024Z,7.03
2019-03-28T20:49:57.692Z,5.92
2019-03-28T20:52:24.353Z,6.42
2019-03-28T20:54:51.108Z,7.42
2019-03-28T20:57:17.671Z,6.97
2019-03-28T20:59:44.295Z,6.40
2019-03-28T21:02:11.090Z,6.55
2019-03-28T21:04:37.750Z,8.13
2019-03-28T21:07:04.516Z,5.75
2019-03-28T21:09:31.184Z,6.10
2019-03-28T21:11:57.730Z,7.75
2019-03-28T21:14:24.390Z,10.35
2019-03-28T21:16:50.951Z,12.13
2019-03-28T21:19:18.879Z,9.33
2019-03-28T21:21:45.696Z,9.03
2019-03-28T21:24:12.356Z,13.28
2019-03-28T21:26:39.031Z,7.50
2019-03-28T21:29:05.779Z,5.47
